Time;durP1;ratioP1;P1;durP2;ratioP2;P2;SDS_P1;SDS_P2;PMS_P1;PMS_P2;Temp;Humidity;BMP_temperature;BMP_pressure;BME280_temperature;BME280_humidity;BME280_pressure;Samples;Min_cycle;Max_cycle;Signal;HPM_P1;HPM_P2
2022/06/08 00:01:10;;;;;;;3.38;1.83;;;20.40;76.60;;;;;;5042501;28;20024;-72
2022/06/08 00:03:46;;;;;;;2.80;2.10;;;20.30;76.60;;;;;;5060634;28;20027;-72
2022/06/08 00:06:14;;;;;;;4.70;2.13;;;20.30;76.50;;;;;;5063152;28;20089;-72
2022/06/08 00:08:40;;;;;;;2.85;1.98;;;20.30;76.50;;;;;;5058866;28;20120;-71
2022/06/08 00:11:06;;;;;;;6.90;3.40;;;20.30;77.00;;;;;;5063685;28;20451;-72
2022/06/08 00:13:32;;;;;;;4.45;2.15;;;20.30;76.60;;;;;;5063319;28;20054;-72
2022/06/08 00:15:58;;;;;;;4.50;1.92;;;20.30;76.90;;;;;;5068052;28;20093;-72
2022/06/08 00:18:24;;;;;;;4.10;2.05;;;20.30;77.10;;;;;;5067291;28;20373;-71
2022/06/08 00:20:50;;;;;;;3.80;1.60;;;20.30;77.00;;;;;;5070494;28;20048;-71
2022/06/08 00:23:16;;;;;;;2.55;1.90;;;20.30;77.20;;;;;;5072339;28;20051;-73
2022/06/08 00:25:42;;;;;;;2.28;1.60;;;20.30;76.70;;;;;;5065222;28;20344;-72
2022/06/08 00:28:08;;;;;;;1.98;1.50;;;20.30;77.00;;;;;;5072204;28;20020;-72
2022/06/08 00:30:35;;;;;;;2.80;1.60;;;20.30;77.00;;;;;;5065163;28;20040;-64
2022/06/08 00:33:01;;;;;;;2.10;1.25;;;20.30;77.00;;;;;;5045574;28;20036;-72
2022/06/08 00:35:26;;;;;;;3.25;1.65;;;20.30;76.80;;;;;;5070477;28;20043;-71
2022/06/08 00:37:52;;;;;;;1.60;1.30;;;20.30;76.50;;;;;;5071081;28;20028;-68
2022/06/08 00:40:22;;;;;;;3.97;1.70;;;20.20;77.10;;;;;;5070150;28;20129;-71
2022/06/08 00:42:49;;;;;;;2.35;1.70;;;20.10;77.40;;;;;;5061712;28;20401;-73
2022/06/08 00:45:19;;;;;;;1.98;1.70;;;20.20;77.00;;;;;;5069766;28;20580;-72
2022/06/08 00:47:50;;;;;;;2.47;1.80;;;20.20;76.90;;;;;;5055216;28;20452;-72
2022/06/08 00:50:24;;;;;;;4.13;1.67;;;20.20;76.90;;;;;;5067177;28;20082;-71
2022/06/08 00:52:51;;;;;;;4.70;1.50;;;20.10;76.80;;;;;;5069725;28;20039;-73
2022/06/08 00:55:20;;;;;;;2.42;1.60;;;20.20;77.10;;;;;;5073213;28;20036;-72
2022/06/08 00:57:47;;;;;;;2.63;1.80;;;20.20;77.00;;;;;;5048701;28;20431;-69
2022/06/08 01:00:15;;;;;;;2.15;1.92;;;20.10;76.80;;;;;;5071312;28;20025;-72
2022/06/08 01:02:41;;;;;;;2.60;1.58;;;20.10;77.10;;;;;;5065322;28;20443;-72
2022/06/08 01:05:17;;;;;;;2.20;1.45;;;20.20;76.90;;;;;;5070301;28;20086;-73
2022/06/08 01:07:43;;;;;;;2.30;1.70;;;20.20;76.70;;;;;;5068681;28;20028;-73
2022/06/08 01:10:14;;;;;;;2.97;1.92;;;20.20;76.40;;;;;;5069844;28;20043;-73
2022/06/08 01:12:41;;;;;;;2.40;2.10;;;20.20;76.30;;;;;;5048715;28;20025;-71
2022/06/08 01:15:07;;;;;;;2.65;2.00;;;20.20;76.60;;;;;;5068490;28;20042;-72
2022/06/08 01:17:33;;;;;;;4.35;1.95;;;20.20;76.60;;;;;;5047059;28;20040;-71
2022/06/08 01:19:58;;;;;;;4.35;1.98;;;20.10;76.50;;;;;;5065783;28;20024;-72
2022/06/08 01:22:24;;;;;;;2.45;2.05;;;20.10;76.70;;;;;;5072148;28;20072;-72
2022/06/08 01:24:52;;;;;;;2.60;2.40;;;20.10;76.70;;;;;;5063279;28;20470;-73
2022/06/08 01:27:36;;;;;;;2.78;2.20;;;20.10;76.80;;;;;;5042528;28;20129;-73
2022/06/08 01:30:18;;;;;;;3.25;2.50;;;20.10;76.50;;;;;;5066422;28;20428;-71
2022/06/08 01:32:56;;;;;;;3.58;2.67;;;20.10;76.80;;;;;;5062238;28;20057;-73
2022/06/08 01:35:35;;;;;;;3.53;2.45;;;20.00;76.70;;;;;;5065261;28;20535;-71
2022/06/08 01:38:07;;;;;;;3.13;2.63;;;20.10;76.60;;;;;;5071533;28;20040;-70
2022/06/08 01:41:05;;;;;;;5.60;2.90;;;20.10;76.60;;;;;;5065670;28;20031;-70
2022/06/08 01:43:55;;;;;;;3.60;2.90;;;20.10;76.40;;;;;;5067333;28;20063;-72
2022/06/08 01:46:28;;;;;;;3.40;2.70;;;20.10;76.20;;;;;;5068661;28;20028;-72
2022/06/08 01:49:13;;;;;;;2.78;2.50;;;20.10;76.10;;;;;;5065651;28;20029;-70
2022/06/08 01:51:45;;;;;;;3.47;3.05;;;20.10;76.30;;;;;;5043307;28;20043;-72
2022/06/08 01:54:16;;;;;;;4.35;2.47;;;20.10;77.00;;;;;;5061847;28;20029;-72
2022/06/08 01:56:57;;;;;;;3.88;2.20;;;20.10;76.20;;;;;;5062083;28;20033;-73
2022/06/08 01:59:42;;;;;;;3.80;2.85;;;20.10;76.10;;;;;;5053586;28;20040;-72
2022/06/08 02:02:40;;;;;;;3.88;2.58;;;20.10;76.00;;;;;;5064002;28;20020;-73
2022/06/08 02:05:06;;;;;;;4.75;2.60;;;19.90;76.10;;;;;;4985818;28;20052;-73
2022/06/08 02:07:42;;;;;;;4.22;2.75;;;19.90;76.00;;;;;;5071372;28;20033;-70
2022/06/08 02:10:20;;;;;;;4.00;2.88;;;20.00;76.00;;;;;;5064847;28;20111;-71
2022/06/08 02:12:51;;;;;;;3.38;2.90;;;20.00;76.10;;;;;;5047534;28;20047;-72
2022/06/08 02:15:33;;;;;;;3.90;2.80;;;20.00;75.80;;;;;;5043954;28;20070;-72
2022/06/08 02:18:05;;;;;;;4.85;2.58;;;19.90;76.30;;;;;;5063606;28;20020;-72
2022/06/08 02:20:43;;;;;;;4.10;2.30;;;20.00;75.80;;;;;;5064382;28;20035;-72
2022/06/08 02:23:14;;;;;;;3.10;2.60;;;19.90;76.20;;;;;;5071215;28;20027;-69
2022/06/08 02:25:54;;;;;;;3.35;2.30;;;19.90;75.60;;;;;;5070877;28;20376;-74
2022/06/08 02:28:32;;;;;;;3.88;2.60;;;19.90;75.60;;;;;;5068177;28;20428;-70
2022/06/08 02:31:24;;;;;;;4.47;3.03;;;19.90;75.60;;;;;;5069756;28;20029;-72
2022/06/08 02:34:28;;;;;;;5.18;3.10;;;19.90;75.80;;;;;;5058993;28;20041;-71
2022/06/08 02:37:15;;;;;;;3.83;3.08;;;19.90;75.90;;;;;;5062779;28;20044;-68
2022/06/08 02:40:10;;;;;;;3.90;3.33;;;19.90;75.60;;;;;;5065630;28;20020;-72
2022/06/08 02:42:41;;;;;;;6.10;3.92;;;19.80;75.80;;;;;;5053450;28;20041;-72
2022/06/08 02:45:17;;;;;;;6.18;3.85;;;19.90;75.70;;;;;;5068804;28;20037;-72
2022/06/08 02:47:45;;;;;;;5.60;3.78;;;19.80;75.80;;;;;;5070582;28;20429;-73
2022/06/08 02:50:24;;;;;;;6.10;4.20;;;19.80;76.00;;;;;;5067515;28;20123;-73
2022/06/08 02:52:51;;;;;;;8.48;4.43;;;19.80;76.10;;;;;;5067381;28;20027;-73
2022/06/08 02:55:25;;;;;;;5.75;4.72;;;19.90;76.00;;;;;;5066422;28;20040;-72
2022/06/08 02:58:03;;;;;;;5.07;4.18;;;19.90;76.10;;;;;;5066370;28;20035;-72
2022/06/08 03:00:31;;;;;;;6.35;4.50;;;19.90;76.10;;;;;;5065087;28;20177;-72
2022/06/08 03:03:04;;;;;;;4.88;4.25;;;19.90;75.80;;;;;;5066326;28;20104;-72
2022/06/08 03:05:38;;;;;;;5.45;4.55;;;19.90;76.00;;;;;;5063821;28;20039;-71
2022/06/08 03:08:14;;;;;;;7.60;5.47;;;19.90;75.50;;;;;;5067532;28;20032;-72
2022/06/08 03:10:42;;;;;;;5.45;4.70;;;19.90;75.80;;;;;;5067773;28;20048;-73
2022/06/08 03:13:23;;;;;;;6.75;5.13;;;19.90;76.00;;;;;;5067404;28;20020;-72
2022/06/08 03:15:54;;;;;;;5.35;4.85;;;19.90;75.80;;;;;;5066985;28;20044;-73
2022/06/08 03:18:20;;;;;;;5.80;5.00;;;19.90;75.80;;;;;;5057939;28;20012;-73
2022/06/08 03:20:46;;;;;;;7.75;5.70;;;20.00;75.80;;;;;;5070524;28;20024;-72
2022/06/08 03:23:12;;;;;;;5.90;4.90;;;20.00;75.90;;;;;;5066291;28;20032;-72
2022/06/08 03:25:38;;;;;;;5.85;5.07;;;20.10;75.90;;;;;;5062532;28;20024;-73
2022/06/08 03:28:04;;;;;;;6.93;5.60;;;20.10;75.50;;;;;;5045001;28;20032;-71
2022/06/08 03:30:30;;;;;;;6.60;5.30;;;20.10;75.40;;;;;;5063724;28;20443;-69
2022/06/08 03:32:56;;;;;;;6.85;4.70;;;20.00;75.40;;;;;;5058379;28;20479;-69
2022/06/08 03:35:21;;;;;;;5.00;4.53;;;20.00;75.50;;;;;;5065092;28;20068;-69
2022/06/08 03:37:50;;;;;;;6.80;5.75;;;20.00;75.60;;;;;;5048129;28;20025;-69
2022/06/08 03:40:16;;;;;;;7.18;4.90;;;20.10;75.50;;;;;;5056209;28;20061;-69
2022/06/08 03:42:42;;;;;;;5.30;4.65;;;20.20;75.30;;;;;;5041631;28;20048;-69
2022/06/08 03:45:09;;;;;;;6.03;4.05;;;20.20;74.80;;;;;;5079014;28;20369;-69
2022/06/08 03:47:41;;;;;;;6.18;4.28;;;20.20;74.50;;;;;;5081952;28;20025;-69
2022/06/08 03:50:10;;;;;;;4.30;3.80;;;20.30;74.30;;;;;;5088990;28;20019;-69
2022/06/08 03:52:42;;;;;;;8.52;5.18;;;20.40;74.10;;;;;;5086985;28;20028;-69
2022/06/08 03:55:10;;;;;;;5.00;4.50;;;20.40;73.50;;;;;;5085498;28;20036;-69
2022/06/08 03:57:36;;;;;;;5.85;4.60;;;20.50;73.30;;;;;;5072332;28;20157;-71
2022/06/08 04:00:05;;;;;;;7.05;4.72;;;20.60;72.70;;;;;;5085989;28;20473;-68
2022/06/08 04:02:31;;;;;;;5.35;4.50;;;20.60;72.70;;;;;;5084575;28;20027;-68
2022/06/08 04:04:57;;;;;;;6.32;4.38;;;20.60;72.70;;;;;;5078253;28;20031;-68
2022/06/08 04:07:23;;;;;;;6.95;4.55;;;20.60;72.50;;;;;;5079447;28;20025;-69
2022/06/08 04:09:49;;;;;;;7.93;4.90;;;20.70;72.50;;;;;;5075713;28;20028;-68
2022/06/08 04:12:16;;;;;;;4.28;3.88;;;20.60;72.40;;;;;;5085150;28;20020;-64
2022/06/08 04:14:42;;;;;;;5.72;4.13;;;20.70;72.20;;;;;;5082173;28;20036;-69
2022/06/08 04:17:08;;;;;;;5.32;4.57;;;20.70;72.10;;;;;;5088714;28;20091;-72
2022/06/08 04:19:33;;;;;;;6.25;4.50;;;20.80;71.60;;;;;;5085180;28;20081;-72
2022/06/08 04:21:59;;;;;;;6.63;4.88;;;20.80;71.40;;;;;;5081609;28;20070;-71
2022/06/08 04:24:25;;;;;;;6.57;4.97;;;20.90;71.20;;;;;;5090516;28;20382;-71
2022/06/08 04:26:52;;;;;;;9.25;4.95;;;20.90;71.10;;;;;;5081919;28;20040;-71
2022/06/08 04:29:18;;;;;;;7.65;5.60;;;20.90;71.10;;;;;;5084260;28;20024;-72
2022/06/08 04:31:45;;;;;;;6.47;5.35;;;20.90;71.00;;;;;;5079221;28;20425;-73
2022/06/08 04:34:11;;;;;;;5.32;4.15;;;20.90;71.00;;;;;;5083435;28;20111;-73
2022/06/08 04:36:38;;;;;;;8.95;5.13;;;20.90;71.20;;;;;;5082459;28;20032;-72
2022/06/08 04:39:06;;;;;;;7.38;5.70;;;21.00;70.90;;;;;;5082225;28;20065;-72
2022/06/08 04:41:33;;;;;;;7.13;5.18;;;21.10;70.60;;;;;;5076066;28;20024;-72
2022/06/08 04:43:59;;;;;;;8.57;5.30;;;21.20;70.40;;;;;;5066151;28;20394;-72
2022/06/08 04:46:25;;;;;;;5.78;4.28;;;21.20;70.20;;;;;;5068611;28;20461;-71
2022/06/08 04:48:51;;;;;;;7.10;5.20;;;21.40;70.00;;;;;;5036361;28;20021;-71
2022/06/08 04:51:17;;;;;;;6.13;5.30;;;21.50;69.30;;;;;;5069954;28;20504;-69
2022/06/08 04:53:44;;;;;;;6.18;4.35;;;21.50;68.80;;;;;;5059964;28;20401;-72
2022/06/08 04:56:10;;;;;;;5.03;4.53;;;21.60;68.60;;;;;;5063619;28;20041;-70
2022/06/08 04:58:35;;;;;;;5.93;4.70;;;21.70;68.00;;;;;;5064157;28;20269;-70
2022/06/08 05:01:02;;;;;;;5.47;4.50;;;21.90;67.60;;;;;;5060906;28;20398;-68
2022/06/08 05:03:30;;;;;;;5.50;4.65;;;22.00;67.20;;;;;;5066424;28;20599;-72
2022/06/08 05:05:56;;;;;;;6.93;4.75;;;22.00;67.00;;;;;;5066573;28;20036;-59
2022/06/08 05:08:23;;;;;;;5.90;4.47;;;22.00;66.40;;;;;;5065260;28;20032;-60
2022/06/08 05:10:50;;;;;;;6.97;4.93;;;21.90;66.60;;;;;;5070746;28;20103;-59
2022/06/08 05:13:17;;;;;;;8.20;4.72;;;21.60;67.20;;;;;;5066331;28;20025;-60
2022/06/08 05:15:45;;;;;;;7.53;4.65;;;21.60;67.60;;;;;;5073781;28;20028;-62
2022/06/08 05:18:12;;;;;;;6.05;4.43;;;21.50;67.70;;;;;;5051479;28;20035;-61
2022/06/08 05:20:40;;;;;;;7.35;4.57;;;21.50;67.90;;;;;;5049387;28;20206;-60
2022/06/08 05:23:08;;;;;;;6.13;4.78;;;21.50;67.70;;;;;;5044362;28;20024;-60
2022/06/08 05:25:37;;;;;;;10.25;4.70;;;21.50;67.70;;;;;;5054668;28;20041;-59
2022/06/08 05:28:04;;;;;;;9.25;5.05;;;21.60;67.60;;;;;;5067561;28;20096;-60
2022/06/08 05:30:32;;;;;;;6.30;4.07;;;21.40;67.70;;;;;;5039027;28;20116;-60
2022/06/08 05:32:58;;;;;;;8.40;4.45;;;21.50;68.10;;;;;;5062213;28;20037;-59
2022/06/08 05:35:25;;;;;;;12.45;4.75;;;21.70;67.60;;;;;;5063964;28;20044;-60
2022/06/08 05:37:51;;;;;;;8.10;4.57;;;21.70;67.30;;;;;;5068693;28;20025;-60
2022/06/08 05:40:17;;;;;;;7.00;4.45;;;21.80;67.00;;;;;;5061740;28;20032;-60
2022/06/08 05:42:42;;;;;;;8.25;4.20;;;21.90;66.70;;;;;;5063253;28;20044;-60
2022/06/08 05:45:14;;;;;;;7.78;4.40;;;22.00;66.40;;;;;;5069561;28;20521;-61
2022/06/08 05:47:40;;;;;;;10.18;3.92;;;22.10;65.90;;;;;;5062595;28;20028;-59
2022/06/08 05:50:07;;;;;;;7.40;4.30;;;22.30;65.80;;;;;;5066128;28;20029;-59
2022/06/08 05:52:33;;;;;;;10.65;4.60;;;22.50;65.20;;;;;;5067615;28;20032;-62
2022/06/08 05:54:59;;;;;;;8.02;4.60;;;22.60;64.60;;;;;;5064622;28;20112;-60
2022/06/08 05:57:24;;;;;;;6.45;4.25;;;22.50;64.40;;;;;;5071055;28;20090;-62
2022/06/08 05:59:50;;;;;;;6.15;4.18;;;22.60;64.30;;;;;;5069437;28;20496;-60
2022/06/08 06:02:16;;;;;;;8.15;4.30;;;22.30;64.40;;;;;;5069319;28;20104;-60
2022/06/08 06:04:43;;;;;;;7.40;4.03;;;22.50;64.70;;;;;;5049632;28;20067;-60
2022/06/08 06:07:11;;;;;;;7.82;3.70;;;22.60;64.30;;;;;;5065733;28;20224;-60
2022/06/08 06:09:37;;;;;;;5.75;3.63;;;22.70;64.10;;;;;;5065314;28;20109;-60
2022/06/08 06:12:03;;;;;;;9.00;4.40;;;22.70;62.90;;;;;;5050664;28;20025;-59
2022/06/08 06:14:29;;;;;;;18.05;10.23;;;22.80;63.40;;;;;;5057172;28;20043;-61
2022/06/08 06:16:55;;;;;;;6.80;4.28;;;23.20;63.00;;;;;;5060724;28;20021;-61
2022/06/08 06:19:21;;;;;;;7.90;3.55;;;23.60;61.90;;;;;;5054962;28;20032;-62
2022/06/08 06:21:47;;;;;;;4.65;3.53;;;24.00;60.40;;;;;;5041287;28;20035;-62
2022/06/08 06:24:13;;;;;;;10.45;3.72;;;24.30;59.10;;;;;;5051365;28;20419;-61
2022/06/08 06:26:38;;;;;;;5.65;3.10;;;24.70;58.30;;;;;;5065618;28;20488;-62
2022/06/08 06:29:04;;;;;;;6.50;3.60;;;24.90;57.40;;;;;;5067839;28;20380;-61
2022/06/08 06:31:52;;;;;;;13.73;3.63;;;25.00;57.10;;;;;;5043744;28;20033;-61
2022/06/08 06:34:22;;;;;;;5.68;3.30;;;25.40;56.60;;;;;;5070200;28;20067;-61
2022/06/08 06:36:50;;;;;;;10.50;3.47;;;25.50;55.00;;;;;;5071719;28;20102;-61
2022/06/08 06:39:16;;;;;;;6.63;3.40;;;25.60;55.00;;;;;;5064251;28;20024;-61
2022/06/08 06:41:44;;;;;;;7.80;3.67;;;25.90;54.80;;;;;;5063056;28;20055;-62
2022/06/08 06:44:10;;;;;;;7.03;3.58;;;26.00;54.20;;;;;;5043557;28;20049;-61
2022/06/08 06:46:35;;;;;;;7.75;3.08;;;26.30;53.80;;;;;;5057818;28;20029;-61
2022/06/08 06:49:01;;;;;;;6.55;3.00;;;26.80;52.70;;;;;;5063343;28;20029;-61
2022/06/08 06:51:27;;;;;;;8.30;3.05;;;27.20;51.40;;;;;;5055664;28;20033;-58
2022/06/08 06:53:54;;;;;;;9.15;3.08;;;27.70;50.50;;;;;;5061106;28;20047;-62
2022/06/08 06:56:21;;;;;;;8.40;3.00;;;27.90;49.10;;;;;;5058359;28;20032;-62
2022/06/08 06:58:50;;;;;;;11.20;3.10;;;28.40;49.20;;;;;;5054426;28;20037;-62
2022/06/08 07:01:17;;;;;;;7.95;3.10;;;30.30;46.90;;;;;;5061146;28;20074;-61
2022/06/08 07:03:44;;;;;;;6.88;2.88;;;32.40;42.30;;;;;;5051896;28;20032;-62
2022/06/08 07:06:09;;;;;;;4.25;2.80;;;33.10;40.20;;;;;;5072202;28;20024;-60
2022/06/08 07:08:35;;;;;;;6.57;2.55;;;33.80;38.70;;;;;;5060467;28;20025;-61
2022/06/08 07:13:46;;;;;;;6.28;2.67;;;33.50;38.10;;;;;;5066353;28;20496;-61
2022/06/08 07:16:12;;;;;;;8.40;2.90;;;32.30;39.30;;;;;;5063534;28;20345;-60
2022/06/08 07:18:37;;;;;;;5.35;2.78;;;32.10;40.20;;;;;;5059471;28;20025;-61
2022/06/08 07:21:03;;;;;;;4.97;2.83;;;32.10;40.10;;;;;;5045481;28;20029;-61
2022/06/08 07:23:29;;;;;;;6.55;2.50;;;32.30;40.10;;;;;;5049085;28;20024;-62
2022/06/08 07:25:55;;;;;;;4.63;2.85;;;32.40;40.00;;;;;;5024577;28;20040;-61
2022/06/08 07:28:22;;;;;;;4.80;2.67;;;33.10;39.00;;;;;;5061972;28;20042;-62
2022/06/08 07:30:52;;;;;;;6.25;3.03;;;33.30;38.10;;;;;;5070149;28;20017;-62
2022/06/08 07:33:19;;;;;;;8.32;2.88;;;32.60;38.60;;;;;;5072028;28;20016;-61
2022/06/08 07:35:45;;;;;;;6.05;2.78;;;32.50;39.40;;;;;;5040236;28;20025;-61
2022/06/08 07:38:11;;;;;;;5.35;2.90;;;33.10;39.20;;;;;;5071191;28;20040;-61
2022/06/08 07:40:37;;;;;;;5.40;2.72;;;33.90;37.60;;;;;;5060783;28;20059;-61
2022/06/08 07:43:03;;;;;;;3.90;3.17;;;34.20;37.20;;;;;;5054536;28;20039;-60
2022/06/08 07:45:30;;;;;;;8.23;4.00;;;34.30;36.50;;;;;;5090253;28;20036;-61
2022/06/08 07:50:41;;;;;;;5.95;2.88;;;35.70;36.00;;;;;;5086579;28;20031;-62
2022/06/08 07:53:08;;;;;;;6.57;3.08;;;36.70;34.50;;;;;;5088783;28;20024;-62
2022/06/08 07:55:34;;;;;;;5.15;3.00;;;37.70;33.20;;;;;;5071524;28;20449;-62
2022/06/08 07:58:02;;;;;;;6.55;3.33;;;38.60;32.20;;;;;;5085733;28;20024;-60
2022/06/08 08:00:28;;;;;;;9.98;3.53;;;39.20;31.80;;;;;;5078444;28;20034;-62
2022/06/08 08:02:54;;;;;;;7.93;3.08;;;40.10;30.90;;;;;;5080402;28;20024;-62
2022/06/08 08:05:22;;;;;;;5.78;3.10;;;40.90;29.90;;;;;;5088286;28;20024;-63
2022/06/08 08:07:49;;;;;;;4.45;2.53;;;41.00;29.10;;;;;;5085803;28;20017;-63
2022/06/08 08:10:19;;;;;;;6.63;3.22;;;40.30;29.70;;;;;;5080345;28;20052;-63
2022/06/08 08:12:46;;;;;;;8.45;2.80;;;39.60;30.00;;;;;;5085048;28;20088;-63
2022/06/08 08:15:13;;;;;;;5.47;3.10;;;38.90;30.30;;;;;;5077445;28;20073;-64
2022/06/08 08:17:40;;;;;;;7.53;3.35;;;37.80;31.30;;;;;;5086107;28;20024;-64
2022/06/08 08:20:07;;;;;;;10.32;3.22;;;36.90;32.30;;;;;;5081324;28;20020;-63
2022/06/08 08:22:35;;;;;;;4.28;2.45;;;36.10;32.90;;;;;;5074264;28;20479;-63
2022/06/08 08:25:01;;;;;;;12.40;4.00;;;35.50;33.80;;;;;;5083462;28;20028;-64
2022/06/08 08:27:27;;;;;;;6.82;3.10;;;35.20;34.30;;;;;;5088819;28;20027;-64
2022/06/08 08:29:52;;;;;;;11.10;2.65;;;35.00;34.60;;;;;;5083257;28;20099;-65
2022/06/08 08:32:18;;;;;;;5.93;3.30;;;34.80;34.60;;;;;;5077109;28;20440;-65
2022/06/08 08:34:44;;;;;;;11.95;3.50;;;35.20;34.10;;;;;;5082733;28;20059;-64
2022/06/08 08:37:10;;;;;;;6.28;2.50;;;36.40;33.50;;;;;;5077485;28;20028;-64
2022/06/08 08:39:36;;;;;;;9.13;3.15;;;37.20;31.20;;;;;;5075807;28;20028;-63
2022/06/08 08:42:20;;;;;;;6.15;2.50;;;36.60;31.20;;;;;;5091065;28;20012;-63
2022/06/08 08:45:06;;;;;;;12.85;3.33;;;35.70;32.00;;;;;;5077334;28;20036;-63
2022/06/08 08:47:34;;;;;;;8.48;2.50;;;35.20;33.10;;;;;;5084445;28;20016;-63
2022/06/08 08:50:25;;;;;;;20.52;5.00;;;35.00;33.20;;;;;;5088528;28;20024;-63
2022/06/08 08:53:09;;;;;;;6.10;2.10;;;34.90;32.90;;;;;;5047150;28;20035;-63
2022/06/08 08:55:56;;;;;;;4.20;2.50;;;34.20;33.60;;;;;;5035070;28;20040;-63
2022/06/08 08:58:27;;;;;;;15.30;3.40;;;33.50;34.50;;;;;;5037359;28;20618;-62
2022/06/08 09:00:58;;;;;;;14.32;3.78;;;33.00;35.50;;;;;;5045174;28;20029;-63
2022/06/08 09:03:39;;;;;;;29.00;5.47;;;32.80;35.90;;;;;;5048382;28;20223;-64
2022/06/08 09:06:16;;;;;;;25.15;5.20;;;32.70;35.50;;;;;;5039474;28;20536;-62
2022/06/08 09:08:44;;;;;;;18.83;4.20;;;32.80;35.50;;;;;;5034941;28;20017;-64
2022/06/08 09:11:24;;;;;;;9.82;3.47;;;33.00;35.70;;;;;;5041599;28;20025;-63
2022/06/08 09:13:53;;;;;;;3.15;2.38;;;33.20;35.30;;;;;;5029913;28;20017;-63
2022/06/08 09:16:38;;;;;;;4.15;2.42;;;33.80;34.10;;;;;;5044490;28;20037;-64
2022/06/08 09:19:44;;;;;;;7.18;2.40;;;34.00;33.10;;;;;;5032005;28;20101;-63
2022/06/08 09:22:10;;;;;;;8.57;2.17;;;34.20;33.30;;;;;;4986872;28;20096;-63
2022/06/08 09:24:55;;;;;;;6.10;2.10;;;34.30;32.70;;;;;;4973663;28;20034;-63
2022/06/08 09:27:36;;;;;;;5.78;2.22;;;33.80;32.90;;;;;;4992225;28;20113;-62
2022/06/08 09:30:07;;;;;;;8.77;2.80;;;33.30;33.90;;;;;;5026777;28;20056;-64
2022/06/08 09:32:57;;;;;;;6.85;2.45;;;33.00;34.80;;;;;;5051539;28;20164;-61
2022/06/08 09:35:22;;;;;;;10.75;2.60;;;32.80;34.70;;;;;;5025880;28;20037;-63
2022/06/08 09:37:50;;;;;;;12.10;2.70;;;32.80;34.60;;;;;;5051210;28;20029;-63
2022/06/08 09:40:36;;;;;;;6.75;2.25;;;32.70;34.60;;;;;;5051400;28;20114;-63
2022/06/08 09:43:53;;;;;;;6.63;2.75;;;32.40;35.00;;;;;;5037381;28;20076;-63
2022/06/08 09:52:37;;;;;;;10.18;2.90;;;31.60;36.20;;;;;;4979119;28;20061;-62
2022/06/08 09:55:39;;;;;;;13.20;3.47;;;31.60;36.40;;;;;;4979688;28;20074;-63
2022/06/08 09:58:20;;;;;;;6.78;3.15;;;31.40;36.70;;;;;;4968788;28;20117;-64
2022/06/08 10:00:56;;;;;;;6.95;2.03;;;31.30;37.30;;;;;;5010570;28;20033;-63
2022/06/08 10:03:52;;;;;;;3.38;2.33;;;31.00;37.60;;;;;;5001848;28;20393;-63
2022/06/08 10:06:36;;;;;;;6.55;2.60;;;30.70;36.90;;;;;;5010965;28;20458;-64
2022/06/08 10:09:21;;;;;;;;;;;30.60;37.50;;;;;;5011321;28;20064;-63
2022/06/08 10:12:05;;;;;;;8.07;3.45;;;30.60;37.60;;;;;;5010824;28;19901;-63
2022/06/08 10:14:51;;;;;;;29.80;8.65;;;30.90;37.40;;;;;;5022192;28;20084;-63
2022/06/08 10:17:32;;;;;;;9.57;3.85;;;31.20;37.00;;;;;;5053933;28;20036;-63
2022/06/08 10:20:12;;;;;;;7.45;3.70;;;31.30;36.70;;;;;;5081781;28;20222;-63
2022/06/08 10:22:47;;;;;;;8.98;3.60;;;31.30;37.00;;;;;;5082220;28;20024;-62
2022/06/08 10:25:42;;;;;;;13.15;7.25;;;31.40;36.90;;;;;;5080529;28;20024;-63
2022/06/08 10:28:19;;;;;;;12.93;5.18;;;31.20;37.00;;;;;;5058218;28;20033;-63
2022/06/08 10:31:03;;;;;;;14.63;5.78;;;30.90;37.60;;;;;;5073375;28;20052;-62
2022/06/08 10:33:38;;;;;;;;;;;30.90;38.80;;;;;;5076980;28;20035;-62
2022/06/08 10:36:07;;;;;;;6.28;2.55;;;30.90;38.10;;;;;;5090144;28;20249;-63
2022/06/08 10:38:36;;;;;;;10.10;4.70;;;30.60;38.10;;;;;;5083432;28;20110;-62
2022/06/08 10:42:39;;;;;;;10.32;4.60;;;30.60;38.60;;;;;;5085740;28;20372;-64
2022/06/08 10:43:51;;;;;;;25.00;5.72;;;30.60;38.50;;;;;;5069178;28;20063;-62
2022/06/08 10:46:34;;;;;;;8.02;3.17;;;30.50;38.40;;;;;;5052226;28;20461;-63
2022/06/08 10:49:00;;;;;;;10.60;3.15;;;30.40;39.00;;;;;;5063543;28;20178;-62
2022/06/08 10:51:30;;;;;;;10.45;3.22;;;30.40;38.80;;;;;;5036667;28;20032;-63
2022/06/08 10:56:41;;;;;;;22.02;6.55;;;30.10;39.40;;;;;;5059025;28;20123;-63
2022/06/08 10:59:07;;;;;;;14.63;6.18;;;30.10;39.00;;;;;;5059417;28;20096;-63
2022/06/08 11:01:50;;;;;;;12.98;4.75;;;30.10;38.90;;;;;;5067350;28;20346;-63
2022/06/08 11:04:30;;;;;;;43.70;12.82;;;30.20;38.90;;;;;;5069582;28;20020;-63
2022/06/08 11:07:10;;;;;;;16.42;5.68;;;30.30;38.80;;;;;;5057855;28;20031;-62
2022/06/08 11:09:36;;;;;;;28.50;5.97;;;30.40;38.70;;;;;;5062349;28;20056;-62
2022/06/08 11:12:13;;;;;;;22.75;5.57;;;30.40;38.80;;;;;;5063860;28;20461;-63
2022/06/08 11:14:48;;;;;;;23.77;6.18;;;30.40;39.00;;;;;;5062789;28;20027;-63
2022/06/08 11:17:36;;;;;;;25.55;6.45;;;30.40;38.50;;;;;;5040634;28;20033;-62
2022/06/08 11:20:14;;;;;;;22.42;5.15;;;30.40;38.30;;;;;;5057296;28;20191;-63
2022/06/08 11:22:50;;;;;;;25.85;4.75;;;30.40;38.50;;;;;;5042902;28;20071;-62
2022/06/08 11:25:28;;;;;;;12.95;4.50;;;30.40;39.70;;;;;;5063531;28;20064;-62
2022/06/08 11:28:29;;;;;;;9.73;4.93;;;30.50;38.90;;;;;;5064446;28;20032;-61
2022/06/08 11:31:22;;;;;;;21.98;5.25;;;30.70;38.20;;;;;;5058289;28;20445;-62
2022/06/08 11:34:09;;;;;;;24.40;5.72;;;30.90;37.50;;;;;;5014420;28;20535;-62
2022/06/08 11:36:56;;;;;;;39.00;6.55;;;31.00;37.70;;;;;;5043278;28;20029;-62
2022/06/08 11:39:51;;;;;;;15.82;4.90;;;31.20;37.10;;;;;;5056146;28;20024;-61
2022/06/08 11:42:47;;;;;;;5.97;3.80;;;31.30;36.80;;;;;;5049819;28;20031;-62
2022/06/08 11:45:35;;;;;;;9.10;3.85;;;31.30;36.00;;;;;;5060480;28;20101;-62
2022/06/08 11:48:13;;;;;;;41.55;12.93;;;31.50;35.80;;;;;;5042195;28;20031;-63
2022/06/08 11:50:47;;;;;;;21.13;4.90;;;31.60;35.70;;;;;;5040529;28;20044;-63
2022/06/08 11:53:35;;;;;;;11.32;5.32;;;31.50;36.30;;;;;;5059131;28;20021;-63
2022/06/08 11:56:30;;;;;;;31.15;5.60;;;31.30;37.50;;;;;;5058692;28;20033;-62
2022/06/08 11:59:04;;;;;;;22.15;7.32;;;31.30;37.60;;;;;;5048515;28;20360;-64
2022/06/08 12:01:38;;;;;;;23.10;8.68;;;31.40;37.40;;;;;;5067105;28;20117;-63
2022/06/08 12:04:19;;;;;;;23.00;8.43;;;31.40;37.30;;;;;;5061027;28;20113;-62
2022/06/08 12:06:46;;;;;;;35.88;6.05;;;31.10;37.70;;;;;;5066366;28;20276;-63
2022/06/08 12:09:19;;;;;;;16.02;8.43;;;30.90;38.50;;;;;;5066984;28;20125;-63
2022/06/08 12:11:53;;;;;;;14.30;3.93;;;30.80;38.20;;;;;;5040630;28;20027;-62
2022/06/08 12:14:29;;;;;;;23.30;4.95;;;30.70;39.20;;;;;;5064303;28;20024;-62
2022/06/08 12:17:22;;;;;;;15.85;4.25;;;30.50;39.70;;;;;;5055443;28;20033;-61
2022/06/08 12:19:55;;;;;;;17.67;4.65;;;30.60;39.40;;;;;;5053374;28;20025;-63
2022/06/08 12:22:35;;;;;;;22.55;4.28;;;30.70;39.40;;;;;;5043284;28;20028;-62
2022/06/08 12:25:29;;;;;;;16.70;5.07;;;30.90;39.20;;;;;;5040876;28;20025;-61
2022/06/08 12:28:13;;;;;;;14.18;4.57;;;30.90;38.90;;;;;;5059250;28;20071;-61
2022/06/08 12:30:47;;;;;;;25.23;4.75;;;30.70;38.90;;;;;;5066323;28;20096;-61
2022/06/08 12:33:16;;;;;;;10.68;4.30;;;30.50;39.10;;;;;;5062438;28;20527;-62
2022/06/08 12:36:06;;;;;;;20.98;7.93;;;30.10;39.60;;;;;;5039384;28;20020;-62
2022/06/08 12:39:15;;;;;;;6.75;2.83;;;29.80;40.40;;;;;;5065783;28;20078;-63
2022/06/08 12:42:23;;;;;;;16.40;5.10;;;29.70;40.50;;;;;;5060896;28;20662;-61
2022/06/08 12:44:53;;;;;;;12.73;3.38;;;29.70;40.80;;;;;;5014129;28;20124;-62
2022/06/08 12:47:20;;;;;;;19.95;10.63;;;29.80;40.10;;;;;;5022692;28;20034;-61
2022/06/08 12:49:59;;;;;;;10.77;7.93;;;29.70;40.30;;;;;;5020777;28;20345;-61
2022/06/08 12:52:34;;;;;;;26.80;6.90;;;29.70;40.40;;;;;;5019824;28;20022;-62
2022/06/08 12:55:00;;;;;;;31.40;5.65;;;29.70;40.40;;;;;;5015929;28;20061;-62
2022/06/08 12:57:30;;;;;;;18.73;4.70;;;29.90;40.00;;;;;;4994484;28;20070;-61
2022/06/08 12:59:59;;;;;;;18.30;4.82;;;30.30;40.00;;;;;;4992148;28;20125;-64
2022/06/08 13:02:35;;;;;;;10.43;3.97;;;30.50;39.70;;;;;;4993993;28;20053;-62
2022/06/08 13:05:08;;;;;;;9.45;4.88;;;30.60;39.40;;;;;;4991238;28;20109;-64
2022/06/08 13:07:35;;;;;;;7.07;3.10;;;30.90;39.20;;;;;;4994323;28;20148;-61
2022/06/08 13:10:02;;;;;;;14.98;3.83;;;31.20;38.50;;;;;;4969445;28;20066;-63
2022/06/08 13:12:36;;;;;;;19.33;6.55;;;31.50;37.80;;;;;;4980362;28;20083;-62
2022/06/08 13:15:03;;;;;;;6.47;2.83;;;31.80;37.10;;;;;;4987920;28;20535;-62
2022/06/08 13:17:29;;;;;;;4.72;2.55;;;31.80;35.40;;;;;;4998630;28;20048;-63
2022/06/08 13:19:57;;;;;;;16.30;3.97;;;31.90;34.30;;;;;;4997929;28;20053;-63
2022/06/08 13:22:26;;;;;;;5.68;3.38;;;32.10;34.90;;;;;;5049449;28;20055;-62
2022/06/08 13:24:52;;;;;;;19.25;4.00;;;32.40;34.30;;;;;;5061698;28;20033;-63
2022/06/08 13:27:18;;;;;;;26.83;4.00;;;32.30;34.50;;;;;;5059955;28;20028;-63